Time;durP1;ratioP1;P1;durP2;ratioP2;P2;SDS_P1;SDS_P2;PMS_P1;PMS_P2;Temp;Humidity;BMP_temperature;BMP_pressure;BME280_temperature;BME280_humidity;BME280_pressure;Samples;Min_cycle;Max_cycle;Signal;HPM_P1;HPM_P2
2023/05/04 00:00:49;;;;;;;7.17;4.27;;;8.00;99.90;;;;;;5109230;28;20038;-58
2023/05/04 00:03:15;;;;;;;5.80;4.60;;;7.90;99.90;;;;;;5109663;28;20519;-57
2023/05/04 00:05:41;;;;;;;11.27;5.57;;;7.90;99.90;;;;;;5102067;28;20110;-58
2023/05/04 00:08:07;;;;;;;11.68;5.72;;;7.90;99.90;;;;;;5089582;28;20105;-57
2023/05/04 00:10:32;;;;;;;6.32;5.10;;;7.90;99.90;;;;;;5091316;28;20036;-57
2023/05/04 00:12:58;;;;;;;8.30;5.27;;;7.80;99.90;;;;;;5092635;28;20071;-55
2023/05/04 00:15:23;;;;;;;11.53;5.23;;;7.80;99.90;;;;;;5091637;28;20274;-58
2023/05/04 00:17:49;;;;;;;8.65;5.22;;;7.80;99.90;;;;;;5104132;28;20027;-58
2023/05/04 00:20:15;;;;;;;6.37;4.17;;;7.80;99.90;;;;;;5109652;28;20036;-57
2023/05/04 00:22:40;;;;;;;8.93;4.77;;;7.80;99.90;;;;;;5105176;28;20455;-56
2023/05/04 00:25:07;;;;;;;7.05;4.18;;;7.70;99.90;;;;;;5106746;28;20401;-57
2023/05/04 00:27:33;;;;;;;7.53;5.07;;;7.70;99.90;;;;;;5108053;28;20079;-57
2023/05/04 00:29:59;;;;;;;12.98;5.05;;;7.70;99.90;;;;;;5109784;28;20044;-58
2023/05/04 00:32:26;;;;;;;10.32;4.90;;;7.70;99.90;;;;;;5108045;28;20027;-55
2023/05/04 00:34:51;;;;;;;;;;;7.60;99.90;;;;;;5092000;28;20040;-57
2023/05/04 00:37:17;;;;;;;12.88;5.57;;;7.60;99.90;;;;;;5089967;28;19916;-55
2023/05/04 00:39:42;;;;;;;8.90;5.30;;;7.60;99.90;;;;;;5090002;28;20556;-58
2023/05/04 00:42:08;;;;;;;9.20;5.67;;;7.60;99.90;;;;;;5102013;28;20036;-56
2023/05/04 00:44:34;;;;;;;10.47;5.60;;;7.60;99.90;;;;;;5109392;28;20035;-56
2023/05/04 00:47:01;;;;;;;9.77;5.38;;;7.60;99.90;;;;;;5108908;28;20289;-56
2023/05/04 00:49:27;;;;;;;8.13;5.88;;;7.50;99.90;;;;;;5089347;28;20093;-57
2023/05/04 00:51:55;;;;;;;11.75;6.15;;;7.50;99.90;;;;;;5091984;28;20416;-56
2023/05/04 00:54:23;;;;;;;8.90;5.78;;;7.50;99.90;;;;;;5090713;28;20040;-53
2023/05/04 00:56:49;;;;;;;9.52;5.55;;;7.50;99.90;;;;;;5100255;28;20518;-57
2023/05/04 00:59:14;;;;;;;14.93;7.90;;;7.40;99.90;;;;;;5090575;28;20044;-57
2023/05/04 01:01:40;;;;;;;8.93;5.70;;;7.40;99.90;;;;;;5092196;28;20096;-56
2023/05/04 01:04:07;;;;;;;11.52;6.22;;;7.40;99.90;;;;;;5106035;28;20384;-57
2023/05/04 01:06:55;;;;;;;12.60;6.63;;;7.40;99.90;;;;;;5093474;28;20059;-57
2023/05/04 01:09:40;;;;;;;11.35;6.43;;;7.30;99.90;;;;;;5105525;28;20527;-57
2023/05/04 01:12:06;;;;;;;12.40;6.72;;;7.30;99.90;;;;;;5099890;28;20032;-56
2023/05/04 01:14:33;;;;;;;10.20;5.28;;;7.30;99.90;;;;;;5099971;28;20039;-55
2023/05/04 01:17:02;;;;;;;11.38;6.03;;;7.30;99.90;;;;;;5098900;28;20050;-57
2023/05/04 01:19:28;;;;;;;11.43;6.07;;;7.30;99.90;;;;;;5094238;28;20028;-57
2023/05/04 01:21:55;;;;;;;10.18;6.65;;;7.30;99.90;;;;;;5096273;28;20156;-58
2023/05/04 01:24:21;;;;;;;12.95;6.78;;;7.30;99.90;;;;;;5107038;28;20036;-56
2023/05/04 01:26:57;;;;;;;8.80;5.43;;;7.30;99.90;;;;;;5108243;28;20393;-57
2023/05/04 01:30:03;;;;;;;11.45;6.13;;;7.30;99.90;;;;;;5096342;28;20039;-57
2023/05/04 01:32:30;;;;;;;9.55;5.30;;;7.20;99.90;;;;;;5094443;28;20043;-57
2023/05/04 01:34:56;;;;;;;9.07;5.88;;;7.20;99.90;;;;;;5106662;28;20100;-56
2023/05/04 01:37:22;;;;;;;9.13;5.65;;;7.20;99.90;;;;;;5088006;28;20047;-55
2023/05/04 01:39:47;;;;;;;12.85;5.63;;;7.20;99.90;;;;;;5092897;28;20377;-56
2023/05/04 01:42:13;;;;;;;10.07;6.00;;;7.20;99.90;;;;;;5090943;28;20093;-58
2023/05/04 01:44:39;;;;;;;14.60;6.70;;;7.20;99.90;;;;;;5089628;28;20128;-55
2023/05/04 01:47:05;;;;;;;10.10;5.95;;;7.20;99.90;;;;;;5105083;28;20032;-56
2023/05/04 01:49:31;;;;;;;13.52;7.65;;;7.20;99.90;;;;;;5101969;28;20043;-56
2023/05/04 01:51:57;;;;;;;9.48;6.85;;;7.20;99.90;;;;;;5103566;28;20088;-56
2023/05/04 01:54:22;;;;;;;9.68;6.47;;;7.10;99.90;;;;;;5108039;28;20484;-57
2023/05/04 01:56:48;;;;;;;10.10;7.07;;;7.10;99.90;;;;;;5103134;28;20540;-56
2023/05/04 01:59:14;;;;;;;9.63;6.27;;;7.10;99.90;;;;;;5104106;28;20715;-57
2023/05/04 02:01:40;;;;;;;;;;;7.10;99.90;;;;;;5097485;28;20123;-56
2023/05/04 02:04:06;;;;;;;13.55;7.00;;;7.10;99.90;;;;;;5089601;28;19994;-57
2023/05/04 02:06:32;;;;;;;13.25;6.93;;;7.10;99.90;;;;;;5098743;28;20043;-58
2023/05/04 02:08:58;;;;;;;14.80;7.40;;;7.00;99.90;;;;;;5104962;28;20113;-54
2023/05/04 02:11:23;;;;;;;12.40;6.78;;;7.00;99.90;;;;;;5098816;28;20292;-56
2023/05/04 02:13:49;;;;;;;12.57;6.63;;;7.00;99.90;;;;;;5092371;28;20031;-57
2023/05/04 02:16:15;;;;;;;14.20;7.53;;;7.00;99.90;;;;;;5101770;28;20032;-56
2023/05/04 02:18:40;;;;;;;12.67;6.30;;;7.00;99.90;;;;;;5097021;28;20035;-56
2023/05/04 02:21:06;;;;;;;9.60;6.90;;;7.00;99.90;;;;;;5092538;28;20036;-56
2023/05/04 02:23:31;;;;;;;11.20;7.00;;;7.00;99.90;;;;;;5098311;28;20031;-58
2023/05/04 02:25:57;;;;;;;10.37;7.20;;;7.00;99.90;;;;;;5099923;28;20031;-57
2023/05/04 02:28:22;;;;;;;14.53;6.77;;;7.00;99.90;;;;;;5093992;28;20032;-58
2023/05/04 02:30:48;;;;;;;12.47;7.03;;;7.00;99.90;;;;;;5090274;28;20046;-55
2023/05/04 02:33:13;;;;;;;17.97;7.40;;;7.00;99.90;;;;;;5107742;28;20416;-57
2023/05/04 02:35:39;;;;;;;10.57;7.00;;;7.00;99.90;;;;;;5107593;28;20114;-54
2023/05/04 02:38:05;;;;;;;13.20;7.40;;;7.00;99.90;;;;;;5095576;28;20039;-58
2023/05/04 02:40:30;;;;;;;13.10;7.67;;;7.00;99.90;;;;;;5095027;28;20763;-55
2023/05/04 02:42:56;;;;;;;13.60;8.05;;;7.00;99.90;;;;;;5091466;28;20036;-58
2023/05/04 02:45:22;;;;;;;11.07;7.50;;;7.00;99.90;;;;;;5092843;28;20492;-57
2023/05/04 02:47:47;;;;;;;13.00;7.57;;;7.00;99.90;;;;;;5107408;28;20285;-57
2023/05/04 02:50:13;;;;;;;13.60;7.90;;;7.00;99.90;;;;;;5111421;28;20027;-57
2023/05/04 02:52:38;;;;;;;15.50;8.03;;;7.00;99.90;;;;;;5097842;28;20071;-56
2023/05/04 02:55:05;;;;;;;16.23;6.90;;;7.00;99.90;;;;;;5091747;28;20289;-56
2023/05/04 02:57:31;;;;;;;13.30;8.18;;;6.90;99.90;;;;;;5097642;28;20039;-55
2023/05/04 02:59:56;;;;;;;9.27;7.27;;;6.90;99.90;;;;;;5091109;28;20401;-56
2023/05/04 03:02:22;;;;;;;12.67;7.80;;;6.90;99.90;;;;;;5101431;28;20460;-55
2023/05/04 03:04:47;;;;;;;15.57;8.70;;;6.90;99.90;;;;;;5102506;28;20466;-58
2023/05/04 03:07:13;;;;;;;16.90;9.47;;;6.90;99.90;;;;;;5104696;28;20246;-60
2023/05/04 03:09:39;;;;;;;12.40;7.47;;;6.90;99.90;;;;;;5110209;28;20116;-56
2023/05/04 03:12:05;;;;;;;13.67;7.30;;;6.90;99.90;;;;;;5102588;28;20281;-56
2023/05/04 03:14:30;;;;;;;24.33;9.00;;;6.80;99.90;;;;;;5109343;28;20519;-57
2023/05/04 03:16:56;;;;;;;13.40;7.77;;;6.80;99.90;;;;;;5109396;28;20032;-57
2023/05/04 03:19:22;;;;;;;13.77;9.20;;;6.80;99.90;;;;;;5091478;28;20040;-56
2023/05/04 03:21:48;;;;;;;15.93;9.37;;;6.80;99.90;;;;;;5098779;28;20532;-57
2023/05/04 03:24:17;;;;;;;14.50;8.45;;;6.90;99.90;;;;;;5109716;28;20277;-56
2023/05/04 03:26:43;;;;;;;12.65;8.25;;;6.80;99.90;;;;;;5107056;28;20039;-57
2023/05/04 03:29:09;;;;;;;15.88;9.32;;;6.80;99.90;;;;;;5091177;28;20036;-55
2023/05/04 03:31:35;;;;;;;16.75;9.35;;;6.80;99.90;;;;;;5092012;28;20038;-56
2023/05/04 03:34:02;;;;;;;20.33;8.82;;;6.80;99.90;;;;;;5106445;28;20044;-56
2023/05/04 03:36:28;;;;;;;;;;;6.80;99.90;;;;;;5098013;28;20035;-56
2023/05/04 03:38:53;;;;;;;11.90;8.02;;;6.80;99.90;;;;;;5102352;28;19916;-55
2023/05/04 03:41:19;;;;;;;15.60;8.53;;;6.80;99.90;;;;;;5110652;28;20047;-55
2023/05/04 03:43:45;;;;;;;15.13;7.78;;;6.80;99.90;;;;;;5101254;28;20495;-56
2023/05/04 03:46:11;;;;;;;12.70;8.73;;;6.80;99.90;;;;;;5103858;28;20034;-58
2023/05/04 03:48:36;;;;;;;18.47;9.57;;;6.80;99.90;;;;;;5102721;28;20037;-57
2023/05/04 03:51:02;;;;;;;17.33;9.37;;;6.80;99.90;;;;;;5108589;28;20750;-56
2023/05/04 03:53:28;;;;;;;14.50;8.13;;;6.80;99.90;;;;;;5101100;28;20110;-56
2023/05/04 03:55:53;;;;;;;18.93;9.83;;;6.80;99.90;;;;;;5109165;28;20119;-58
2023/05/04 03:58:19;;;;;;;15.37;9.67;;;6.80;99.90;;;;;;5099404;28;20076;-57
2023/05/04 04:00:45;;;;;;;17.25;9.00;;;6.80;99.90;;;;;;5093074;28;20408;-55
2023/05/04 04:03:10;;;;;;;16.57;8.93;;;6.80;99.90;;;;;;5102428;28;20122;-57
2023/05/04 04:05:36;;;;;;;12.43;8.57;;;6.80;99.90;;;;;;5092242;28;20040;-58
2023/05/04 04:08:01;;;;;;;15.07;8.53;;;6.80;99.90;;;;;;5092805;28;20502;-54
2023/05/04 04:10:27;;;;;;;16.23;8.93;;;6.80;99.90;;;;;;5091494;28;20040;-57
2023/05/04 04:12:53;;;;;;;24.17;10.00;;;6.80;99.90;;;;;;5096807;28;20493;-55
2023/05/04 04:15:18;;;;;;;12.57;9.13;;;6.70;99.90;;;;;;5092646;28;20070;-55
2023/05/04 04:17:44;;;;;;;15.17;10.30;;;6.70;99.90;;;;;;5089909;28;20115;-57
2023/05/04 04:20:10;;;;;;;14.73;9.43;;;6.70;99.90;;;;;;5109162;28;20121;-55
2023/05/04 04:22:36;;;;;;;12.40;9.15;;;6.80;99.90;;;;;;5108617;28;20056;-56
2023/05/04 04:25:02;;;;;;;14.97;9.33;;;6.70;99.90;;;;;;5094460;28;20249;-56
2023/05/04 04:27:27;;;;;;;11.35;8.82;;;6.70;99.90;;;;;;5093770;28;20039;-56
2023/05/04 04:29:53;;;;;;;15.40;10.10;;;6.70;99.90;;;;;;5094253;28;20047;-58
2023/05/04 04:32:20;;;;;;;23.27;9.27;;;6.70;99.90;;;;;;5092921;28;20091;-54
2023/05/04 04:34:45;;;;;;;14.85;9.10;;;6.70;99.90;;;;;;5091249;28;20036;-57
2023/05/04 04:37:11;;;;;;;17.70;9.63;;;6.70;99.90;;;;;;5091849;28;20101;-57
2023/05/04 04:39:36;;;;;;;15.40;9.00;;;6.70;99.90;;;;;;5100811;28;20040;-53
2023/05/04 04:42:02;;;;;;;23.43;10.43;;;6.70;99.90;;;;;;5103915;28;20035;-56
2023/05/04 04:44:28;;;;;;;13.43;9.30;;;6.70;99.90;;;;;;5102268;28;20077;-56
2023/05/04 04:46:54;;;;;;;13.10;8.93;;;6.70;99.90;;;;;;5107433;28;20138;-57
2023/05/04 04:49:20;;;;;;;18.38;10.30;;;6.80;99.90;;;;;;5099247;27;20557;-54
2023/05/04 04:51:47;;;;;;;15.75;9.48;;;6.80;99.90;;;;;;5101877;28;20028;-54
2023/05/04 04:54:13;;;;;;;24.38;10.50;;;6.80;99.90;;;;;;5097013;28;20071;-58
2023/05/04 04:56:39;;;;;;;14.02;9.20;;;6.80;99.90;;;;;;5107690;28;20495;-56
2023/05/04 04:59:05;;;;;;;15.90;10.13;;;6.80;99.90;;;;;;5103137;28;20055;-58
2023/05/04 05:01:32;;;;;;;17.05;10.13;;;6.80;99.90;;;;;;5106070;28;20092;-57
2023/05/04 05:03:57;;;;;;;;;;;6.80;99.90;;;;;;5105040;28;20040;-56
2023/05/04 05:06:24;;;;;;;15.90;9.65;;;6.90;99.90;;;;;;5091267;28;19915;-55
2023/05/04 05:08:50;;;;;;;17.35;10.85;;;6.90;99.90;;;;;;5089366;28;20059;-55
2023/05/04 05:11:16;;;;;;;19.33;10.73;;;6.90;99.90;;;;;;5108265;28;20023;-55
2023/05/04 05:13:41;;;;;;;13.20;9.00;;;6.90;99.90;;;;;;5108605;28;20038;-53
2023/05/04 05:16:07;;;;;;;17.13;9.87;;;7.00;99.90;;;;;;5090784;28;20040;-56
2023/05/04 05:18:32;;;;;;;21.97;10.97;;;7.00;99.90;;;;;;5106701;28;20035;-57
2023/05/04 05:20:59;;;;;;;15.07;9.83;;;7.00;99.90;;;;;;5106467;28;20366;-55
2023/05/04 05:23:25;;;;;;;15.57;10.38;;;7.00;99.90;;;;;;5092278;28;20067;-56
2023/05/04 05:25:51;;;;;;;15.50;10.60;;;7.00;99.90;;;;;;5103264;28;20070;-56
2023/05/04 05:28:17;;;;;;;17.17;10.27;;;7.10;99.90;;;;;;5105156;28;20043;-56
2023/05/04 05:30:43;;;;;;;17.10;11.43;;;7.10;99.90;;;;;;5090433;28;20039;-57
2023/05/04 05:33:09;;;;;;;16.95;11.23;;;7.10;99.90;;;;;;5091587;28;20035;-56
2023/05/04 05:35:35;;;;;;;20.27;10.18;;;7.20;99.90;;;;;;5091752;28;20096;-57
2023/05/04 05:38:01;;;;;;;23.75;10.45;;;7.30;99.90;;;;;;5090874;28;20035;-55
2023/05/04 05:40:27;;;;;;;11.95;9.90;;;7.30;99.90;;;;;;5098343;28;20172;-58
2023/05/04 05:42:52;;;;;;;16.55;9.82;;;7.30;99.90;;;;;;5108588;28;20408;-57
2023/05/04 05:45:18;;;;;;;15.30;10.83;;;7.30;99.90;;;;;;5106269;28;20035;-57
2023/05/04 05:47:44;;;;;;;16.03;9.67;;;7.40;99.90;;;;;;5102532;28;20094;-56
2023/05/04 05:50:12;;;;;;;15.40;9.73;;;7.40;99.90;;;;;;5095083;28;20260;-57
2023/05/04 05:52:38;;;;;;;17.20;11.30;;;7.50;99.90;;;;;;5107324;28;20036;-57
2023/05/04 05:55:04;;;;;;;23.58;9.88;;;7.60;99.90;;;;;;5102553;28;20028;-56
2023/05/04 05:57:30;;;;;;;21.75;9.90;;;7.60;99.90;;;;;;5100173;28;20046;-57
2023/05/04 05:59:56;;;;;;;16.13;11.13;;;7.70;99.90;;;;;;5091767;28;20127;-54
2023/05/04 06:02:22;;;;;;;24.08;11.43;;;7.80;99.90;;;;;;5106608;28;20063;-56
2023/05/04 06:04:48;;;;;;;16.73;10.45;;;7.80;99.90;;;;;;5106383;28;20035;-55
2023/05/04 06:07:13;;;;;;;18.60;11.07;;;7.90;99.90;;;;;;5091525;28;20123;-58
2023/05/04 06:09:39;;;;;;;14.10;10.13;;;8.00;99.90;;;;;;5094489;28;20342;-57
2023/05/04 06:12:11;;;;;;;15.90;10.15;;;8.00;99.90;;;;;;5091233;28;20040;-57
2023/05/04 06:14:37;;;;;;;16.33;10.18;;;8.10;99.90;;;;;;5091817;28;20402;-57
2023/05/04 06:17:02;;;;;;;18.48;10.93;;;8.10;99.90;;;;;;5091387;28;20032;-54
2023/05/04 06:19:28;;;;;;;14.23;10.47;;;8.20;99.90;;;;;;5088366;28;20046;-55
2023/05/04 06:21:53;;;;;;;21.70;11.53;;;8.30;99.90;;;;;;5101715;28;20031;-56
2023/05/04 06:24:20;;;;;;;18.03;10.40;;;8.40;99.90;;;;;;5096002;28;20280;-56
2023/05/04 06:26:46;;;;;;;18.23;9.88;;;8.40;99.90;;;;;;5094822;28;20039;-55
2023/05/04 06:29:11;;;;;;;14.60;10.07;;;8.50;99.90;;;;;;5092339;28;20089;-57
2023/05/04 06:31:37;;;;;;;21.23;10.73;;;8.60;99.90;;;;;;5094636;28;20032;-56
2023/05/04 06:34:03;;;;;;;14.47;10.10;;;8.70;99.90;;;;;;5096295;28;20070;-56
2023/05/04 06:36:28;;;;;;;28.08;9.68;;;8.80;99.90;;;;;;5102381;28;20368;-58
2023/05/04 06:38:56;;;;;;;22.83;9.83;;;8.90;99.90;;;;;;5098845;28;20071;-57
2023/05/04 06:41:23;;;;;;;12.82;9.57;;;9.00;99.90;;;;;;5098535;28;20277;-56
2023/05/04 06:43:48;;;;;;;15.90;9.05;;;9.10;99.90;;;;;;5106901;28;20043;-59
2023/05/04 06:46:14;;;;;;;14.17;10.60;;;9.20;99.90;;;;;;5107603;28;20052;-58
2023/05/04 06:48:40;;;;;;;16.43;10.40;;;9.30;99.90;;;;;;5091759;28;20651;-58
2023/05/04 06:51:05;;;;;;;19.25;11.02;;;9.40;99.90;;;;;;5094119;28;20040;-58
2023/05/04 06:53:31;;;;;;;14.10;9.75;;;9.40;99.90;;;;;;5105775;28;20027;-58
2023/05/04 06:55:57;;;;;;;17.17;9.93;;;9.60;99.90;;;;;;5108744;28;20123;-57
2023/05/04 06:58:22;;;;;;;15.37;9.37;;;9.60;99.90;;;;;;5101722;28;20865;-57
2023/05/04 07:00:48;;;;;;;14.17;8.93;;;9.70;99.90;;;;;;5109045;28;20036;-57
2023/05/04 07:03:13;;;;;;;33.00;11.43;;;9.80;99.90;;;;;;5108716;28;20071;-57
2023/05/04 07:05:39;;;;;;;587.53;61.80;;;9.80;99.90;;;;;;5110884;28;20104;-58
2023/05/04 07:08:05;;;;;;;21.50;9.63;;;9.90;99.90;;;;;;5097832;28;20297;-57
2023/05/04 07:10:31;;;;;;;11.48;8.57;;;10.00;99.90;;;;;;5102410;28;20044;-58
2023/05/04 07:12:57;;;;;;;19.17;8.90;;;10.10;99.90;;;;;;5107261;28;20036;-59
2023/05/04 07:15:23;;;;;;;17.67;8.07;;;10.20;99.90;;;;;;5110780;28;20492;-59
2023/05/04 07:17:49;;;;;;;12.23;7.90;;;10.30;99.90;;;;;;5105769;28;20036;-57
2023/05/04 07:20:14;;;;;;;12.32;7.60;;;10.40;99.90;;;;;;5103294;28;20035;-59
2023/05/04 07:22:41;;;;;;;18.00;8.30;;;10.50;99.90;;;;;;5108129;28;20389;-58
2023/05/04 07:25:07;;;;;;;12.32;8.13;;;10.60;99.90;;;;;;5109567;28;20031;-58
2023/05/04 07:27:36;;;;;;;13.88;9.20;;;10.70;99.90;;;;;;5097687;28;20036;-58
2023/05/04 07:30:02;;;;;;;10.77;8.13;;;10.80;99.90;;;;;;5096244;28;20101;-55
2023/05/04 07:32:28;;;;;;;15.75;8.95;;;10.90;99.90;;;;;;5109227;28;20050;-56
2023/05/04 07:34:53;;;;;;;10.17;7.63;;;11.00;99.90;;;;;;5092760;28;20040;-55
2023/05/04 07:37:19;;;;;;;14.17;9.10;;;11.10;99.90;;;;;;5092811;28;20278;-54
2023/05/04 07:39:44;;;;;;;12.83;8.70;;;11.20;99.90;;;;;;5093585;28;20095;-53
2023/05/04 07:42:10;;;;;;;12.38;8.23;;;11.20;99.90;;;;;;5097887;28;20297;-57
2023/05/04 07:44:36;;;;;;;11.38;7.90;;;11.20;99.90;;;;;;5094759;28;20034;-53
2023/05/04 07:47:03;;;;;;;14.13;7.40;;;11.30;99.90;;;;;;5100420;28;20496;-57
2023/05/04 07:49:28;;;;;;;12.90;8.55;;;11.40;99.90;;;;;;5098006;28;20035;-59
2023/05/04 07:51:54;;;;;;;11.23;7.37;;;11.40;99.90;;;;;;5096135;28;20031;-58
2023/05/04 07:54:20;;;;;;;14.40;8.13;;;11.50;99.90;;;;;;5105118;28;20281;-58
2023/05/04 07:56:46;;;;;;;11.23;7.78;;;11.60;99.90;;;;;;5104142;28;20445;-57
2023/05/04 07:59:12;;;;;;;11.20;7.57;;;11.70;99.90;;;;;;5096597;28;20043;-58
2023/05/04 08:01:38;;;;;;;13.13;8.18;;;11.70;99.90;;;;;;5103293;28;20036;-58
2023/05/04 08:04:04;;;;;;;8.65;7.28;;;11.80;99.90;;;;;;5106155;28;20098;-59
2023/05/04 08:06:29;;;;;;;10.63;7.10;;;11.90;99.90;;;;;;5092714;28;20043;-57
2023/05/04 08:08:55;;;;;;;12.13;7.60;;;11.90;99.90;;;;;;5091207;28;20044;-54
2023/05/04 08:11:20;;;;;;;14.00;6.87;;;12.00;99.90;;;;;;5091797;28;20477;-52
2023/05/04 08:13:48;;;;;;;12.25;7.40;;;12.10;99.90;;;;;;5108032;28;20342;-55
2023/05/04 08:16:13;;;;;;;12.07;7.22;;;12.20;99.90;;;;;;5109524;28;20074;-56
2023/05/04 08:18:39;;;;;;;9.00;7.05;;;12.30;99.90;;;;;;5094160;28;20552;-54
2023/05/04 08:21:05;;;;;;;8.57;6.83;;;12.40;99.90;;;;;;5094085;28;20472;-55
2023/05/04 08:23:32;;;;;;;10.20;7.93;;;12.50;99.90;;;;;;5102924;28;20289;-57
2023/05/04 08:26:01;;;;;;;11.02;7.63;;;12.60;99.90;;;;;;5107177;28;20463;-57
2023/05/04 08:28:27;;;;;;;13.05;6.90;;;12.70;99.90;;;;;;5103801;28;20035;-57
2023/05/04 08:30:52;;;;;;;11.10;7.35;;;12.80;99.90;;;;;;5096416;28;20094;-54
2023/05/04 08:33:18;;;;;;;10.57;7.77;;;12.80;99.90;;;;;;5100883;28;20024;-55
2023/05/04 08:35:44;;;;;;;12.13;7.75;;;12.90;99.90;;;;;;5108307;28;20039;-56
2023/05/04 08:38:10;;;;;;;9.07;6.38;;;13.00;99.90;;;;;;5098314;28;20028;-54
2023/05/04 08:40:39;;;;;;;10.02;6.60;;;13.10;99.90;;;;;;5100420;28;20135;-58
2023/05/04 08:43:04;;;;;;;12.95;7.78;;;13.20;99.90;;;;;;5099642;28;20405;-59
2023/05/04 08:45:31;;;;;;;9.23;6.97;;;13.20;99.90;;;;;;5093506;28;20031;-59
2023/05/04 08:47:57;;;;;;;13.27;7.78;;;13.30;99.90;;;;;;5105068;28;20493;-59
2023/05/04 08:50:23;;;;;;;19.48;7.07;;;13.40;99.90;;;;;;5108841;28;20128;-59
2023/05/04 08:52:49;;;;;;;8.95;6.30;;;13.50;99.90;;;;;;5102443;27;20027;-59
2023/05/04 08:55:15;;;;;;;;;;;13.70;99.90;;;;;;5106709;28;20421;-59
2023/05/04 08:57:42;;;;;;;12.65;7.43;;;13.70;99.90;;;;;;5095882;28;19920;-59
2023/05/04 09:00:11;;;;;;;12.63;6.78;;;13.90;99.90;;;;;;5092031;28;20061;-56
2023/05/04 09:02:37;;;;;;;14.80;7.40;;;14.00;99.90;;;;;;5096899;28;20036;-59
2023/05/04 09:05:11;;;;;;;10.93;7.30;;;14.10;99.90;;;;;;5064820;28;20402;-59
2023/05/04 09:07:37;;;;;;;8.13;6.10;;;14.20;99.90;;;;;;5059904;28;20506;-60
2023/05/04 09:10:03;;;;;;;11.20;7.57;;;14.30;99.90;;;;;;5045501;28;20044;-59
2023/05/04 09:12:30;;;;;;;11.38;7.53;;;14.40;99.90;;;;;;5061550;28;20029;-58
2023/05/04 09:14:56;;;;;;;7.82;6.13;;;14.50;99.90;;;;;;5047033;28;20124;-60
2023/05/04 09:17:24;;;;;;;18.70;8.50;;;14.60;99.40;;;;;;5060017;28;20087;-60
2023/05/04 09:20:00;;;;;;;11.93;6.63;;;14.60;99.50;;;;;;5052520;28;20043;-61
2023/05/04 09:22:28;;;;;;;10.85;6.90;;;14.70;98.60;;;;;;5063412;28;20136;-61
2023/05/04 09:25:04;;;;;;;9.77;6.65;;;14.70;99.10;;;;;;5055798;28;20037;-60
2023/05/04 09:27:29;;;;;;;11.55;6.43;;;14.70;99.10;;;;;;5059175;28;20040;-59
2023/05/04 09:29:55;;;;;;;12.70;6.68;;;14.80;99.20;;;;;;5046472;28;20491;-57
2023/05/04 09:32:21;;;;;;;12.38;6.75;;;14.90;99.00;;;;;;5058048;28;20041;-58
2023/05/04 09:34:51;;;;;;;9.98;6.13;;;14.90;98.50;;;;;;5052279;28;20037;-58
2023/05/04 09:37:19;;;;;;;11.55;7.05;;;15.00;98.50;;;;;;5054744;28;20072;-57
2023/05/04 09:39:58;;;;;;;7.60;6.22;;;15.10;98.70;;;;;;5049542;28;20456;-58
2023/05/04 09:42:25;;;;;;;14.07;7.25;;;15.20;98.40;;;;;;5045569;28;20128;-59
2023/05/04 09:45:07;;;;;;;8.02;5.65;;;15.30;98.50;;;;;;5045235;28;20107;-59
2023/05/04 09:47:34;;;;;;;11.82;6.10;;;15.50;97.50;;;;;;5051777;28;20115;-58
2023/05/04 09:50:14;;;;;;;7.82;6.57;;;15.70;97.70;;;;;;5049472;28;20088;-59
2023/05/04 09:52:41;;;;;;;9.32;5.82;;;15.80;97.70;;;;;;5048969;28;20086;-59
2023/05/04 09:55:12;;;;;;;6.88;5.80;;;15.90;96.60;;;;;;5058244;28;20052;-59
2023/05/04 09:57:40;;;;;;;9.38;5.53;;;16.00;96.90;;;;;;5055401;28;20636;-59
2023/05/04 10:00:08;;;;;;;18.45;5.40;;;16.10;96.90;;;;;;5047289;28;20037;-57
2023/05/04 10:02:35;;;;;;;10.45;5.90;;;16.20;97.20;;;;;;5045837;28;20045;-58
2023/05/04 10:05:01;;;;;;;11.23;6.20;;;16.30;96.70;;;;;;5051187;28;20441;-59
2023/05/04 10:07:30;;;;;;;9.65;5.72;;;16.30;96.60;;;;;;5048316;28;20041;-59
2023/05/04 10:09:58;;;;;;;6.68;4.70;;;16.40;96.50;;;;;;5054843;28;20047;-57
2023/05/04 10:12:23;;;;;;;10.30;5.47;;;16.50;96.30;;;;;;5048990;28;20116;-59
2023/05/04 10:14:49;;;;;;;6.55;4.40;;;16.50;95.90;;;;;;5042618;28;20104;-59
2023/05/04 10:17:42;;;;;;;8.15;4.70;;;16.60;96.00;;;;;;5035796;28;20465;-59
2023/05/04 10:20:07;;;;;;;6.05;4.93;;;16.60;95.50;;;;;;5033011;28;20071;-59
2023/05/04 10:23:08;;;;;;;10.38;4.43;;;16.70;95.90;;;;;;5030211;28;20467;-59
2023/05/04 10:25:55;;;;;;;4.40;3.90;;;16.80;95.20;;;;;;5027109;28;20503;-59
2023/05/04 10:28:47;;;;;;;8.60;4.38;;;16.90;94.70;;;;;;5025775;28;20119;-58
2023/05/04 10:31:13;;;;;;;11.13;4.40;;;17.00;95.00;;;;;;5027621;28;20042;-59
2023/05/04 10:33:40;;;;;;;8.55;4.05;;;17.10;94.90;;;;;;5026423;28;20130;-58
2023/05/04 10:36:06;;;;;;;7.93;4.05;;;17.10;94.60;;;;;;5026208;28;20050;-59
2023/05/04 10:38:34;;;;;;;8.50;3.78;;;17.20;94.10;;;;;;5030825;28;20041;-59
2023/05/04 10:41:00;;;;;;;6.32;3.53;;;17.10;92.70;;;;;;5037856;28;20037;-59
2023/05/04 10:43:28;;;;;;;3.65;3.03;;;17.20;93.40;;;;;;5045065;28;20139;-59
2023/05/04 10:45:56;;;;;;;4.57;2.75;;;17.30;93.20;;;;;;5042227;28;20051;-59
2023/05/04 10:48:33;;;;;;;5.90;2.38;;;17.30;92.80;;;;;;5033117;28;20034;-59
2023/05/04 10:50:59;;;;;;;6.18;2.97;;;17.30;92.80;;;;;;5041578;28;20041;-58
2023/05/04 10:53:31;;;;;;;16.00;4.18;;;17.40;92.70;;;;;;5041735;28;20079;-58
2023/05/04 10:55:57;;;;;;;7.22;3.45;;;17.50;92.80;;;;;;5045517;28;20045;-58
2023/05/04 10:58:28;;;;;;;5.13;3.08;;;17.50;92.70;;;;;;5029929;28;20045;-59
2023/05/04 11:00:53;;;;;;;3.20;2.58;;;17.50;92.30;;;;;;5031216;28;20081;-59
2023/05/04 11:03:21;;;;;;;6.13;2.67;;;17.60;92.70;;;;;;5031221;28;20038;-59
2023/05/04 11:05:51;;;;;;;4.28;2.30;;;17.60;91.20;;;;;;5031468;28;20049;-59
2023/05/04 11:08:26;;;;;;;8.70;3.53;;;17.50;91.20;;;;;;5029457;28;20037;-60
2023/05/04 11:11:02;;;;;;;5.28;2.42;;;17.50;90.80;;;;;;5030640;28;20037;-57
2023/05/04 11:13:32;;;;;;;4.88;2.42;;;17.60;90.50;;;;;;5027690;28;20087;-59
2023/05/04 11:15:59;;;;;;;4.25;3.10;;;17.60;90.60;;;;;;5030739;28;20052;-58
2023/05/04 11:18:32;;;;;;;85.32;7.65;;;17.60;90.70;;;;;;5029078;28;20037;-58
2023/05/04 11:20:59;;;;;;;6.57;1.92;;;17.70;90.70;;;;;;5031321;28;20045;-59
2023/05/04 11:23:25;;;;;;;5.43;2.22;;;17.70;90.90;;;;;;5031078;28;20091;-59
2023/05/04 11:25:51;;;;;;;;;;;17.80;90.60;;;;;;5031498;28;20037;-59
2023/05/04 11:28:16;;;;;;;4.93;2.63;;;17.90;90.20;;;;;;5028397;28;20293;-59
2023/05/04 11:30:46;;;;;;;5.25;2.38;;;18.00;90.30;;;;;;5031284;28;20042;-58
2023/05/04 11:33:16;;;;;;;5.97;2.05;;;18.00;90.00;;;;;;5030348;28;20125;-54
2023/05/04 11:35:43;;;;;;;3.30;2.00;;;18.00;88.60;;;;;;5030145;28;20049;-58
2023/05/04 11:38:09;;;;;;;9.98;3.08;;;18.20;89.20;;;;;;5028916;28;20046;-58
2023/05/04 11:40:36;;;;;;;6.90;1.80;;;18.30;88.40;;;;;;5028687;28;20040;-59
2023/05/04 11:43:03;;;;;;;7.20;1.98;;;18.40;87.90;;;;;;5025390;28;20045;-59
2023/05/04 11:45:36;;;;;;;6.70;1.58;;;18.50;88.40;;;;;;5030242;28;20502;-59
2023/05/04 11:48:03;;;;;;;5.50;2.85;;;18.60;88.10;;;;;;5029306;28;20042;-58
2023/05/04 11:50:29;;;;;;;2.78;2.30;;;18.70;87.40;;;;;;5030387;28;20055;-59
2023/05/04 11:53:05;;;;;;;6.55;2.50;;;18.70;87.10;;;;;;5030635;28;20120;-59
2023/05/04 11:55:31;;;;;;;;;;;18.70;85.80;;;;;;5029521;28;20041;-59
2023/05/04 11:58:02;;;;;;;15.52;2.80;;;18.70;85.10;;;;;;5029702;28;20299;-59
2023/05/04 12:00:38;;;;;;;5.13;2.10;;;18.70;87.30;;;;;;5042161;28;20473;-59
2023/05/04 12:03:10;;;;;;;10.25;3.20;;;18.70;84.20;;;;;;5020408;28;20036;-56
2023/05/04 12:05:36;;;;;;;7.55;2.83;;;18.70;87.30;;;;;;5030104;28;20044;-54
2023/05/04 12:08:03;;;;;;;5.28;2.95;;;18.70;87.10;;;;;;5029198;28;20041;-59
2023/05/04 12:10:32;;;;;;;7.30;2.35;;;18.80;87.40;;;;;;5030108;28;20112;-59
2023/05/04 12:12:57;;;;;;;3.47;2.25;;;18.80;86.40;;;;;;5030381;28;20534;-58
2023/05/04 12:15:28;;;;;;;6.38;2.65;;;18.90;85.10;;;;;;5030401;28;20120;-59
2023/05/04 12:17:54;;;;;;;5.68;2.50;;;18.90;85.80;;;;;;5027242;28;20044;-59
2023/05/04 12:20:24;;;;;;;4.93;2.10;;;19.00;86.00;;;;;;5029821;28;20462;-59
2023/05/04 12:22:50;;;;;;;3.60;2.17;;;19.00;84.90;;;;;;5029924;28;20067;-59
2023/05/04 12:25:18;;;;;;;5.85;2.97;;;19.10;84.30;;;;;;5030387;28;20037;-58
2023/05/04 12:27:44;;;;;;;3.28;2.40;;;19.00;83.10;;;;;;5028597;28;20091;-59
2023/05/04 12:30:10;;;;;;;6.07;2.28;;;19.00;84.80;;;;;;5030414;28;20056;-57
2023/05/04 12:32:36;;;;;;;7.18;2.17;;;19.00;83.40;;;;;;5028794;28;20056;-58
2023/05/04 12:35:03;;;;;;;7.25;2.55;;;19.00;82.60;;;;;;5028412;28;20046;-59
2023/05/04 12:37:29;;;;;;;5.78;2.83;;;19.10;83.80;;;;;;5028557;28;20073;-57
2023/05/04 12:39:55;;;;;;;6.53;2.88;;;19.10;84.10;;;;;;5029760;28;20071;-58
2023/05/04 12:42:20;;;;;;;6.97;3.35;;;19.10;82.90;;;;;;5030284;28;20494;-58
2023/05/04 12:44:46;;;;;;;7.00;3.65;;;19.10;83.10;;;;;;5029764;28;20033;-58